sensor_id;sensor_type;location;lat;lon;timestamp;temperature;humidity
15099;DHT22;33900;53.640;9.942;2024-01-25T00:00:41;9.60;92.40
15099;DHT22;33900;53.640;9.942;2024-01-25T00:03:07;9.60;92.70
15099;DHT22;33900;53.640;9.942;2024-01-25T00:05:32;9.60;92.40
15099;DHT22;33900;53.640;9.942;2024-01-25T00:07:58;9.60;92.40
15099;DHT22;33900;53.640;9.942;2024-01-25T00:10:24;9.60;92.50
15099;DHT22;33900;53.640;9.942;2024-01-25T00:12:49;9.50;92.50
15099;DHT22;33900;53.640;9.942;2024-01-25T00:15:15;9.50;92.60
15099;DHT22;33900;53.640;9.942;2024-01-25T00:17:41;9.50;92.60
15099;DHT22;33900;53.640;9.942;2024-01-25T00:20:08;9.50;92.70
15099;DHT22;33900;53.640;9.942;2024-01-25T00:22:34;9.50;92.70
15099;DHT22;33900;53.640;9.942;2024-01-25T00:25:00;9.50;92.80
15099;DHT22;33900;53.640;9.942;2024-01-25T00:27:25;9.40;92.80
15099;DHT22;33900;53.640;9.942;2024-01-25T00:29:51;9.40;92.80
15099;DHT22;33900;53.640;9.942;2024-01-25T00:32:17;9.40;92.90
15099;DHT22;33900;53.640;9.942;2024-01-25T00:34:42;9.40;92.90
15099;DHT22;33900;53.640;9.942;2024-01-25T00:37:08;9.40;92.90
15099;DHT22;33900;53.640;9.942;2024-01-25T00:39:34;9.40;93.00
15099;DHT22;33900;53.640;9.942;2024-01-25T00:42:03;9.40;93.10
15099;DHT22;33900;53.640;9.942;2024-01-25T00:44:29;9.30;93.10
15099;DHT22;33900;53.640;9.942;2024-01-25T00:46:55;9.30;93.20
15099;DHT22;33900;53.640;9.942;2024-01-25T00:49:21;9.30;93.20
15099;DHT22;33900;53.640;9.942;2024-01-25T00:51:47;9.30;93.20
15099;DHT22;33900;53.640;9.942;2024-01-25T00:54:14;9.30;93.20
15099;DHT22;33900;53.640;9.942;2024-01-25T00:56:39;9.30;93.30
15099;DHT22;33900;53.640;9.942;2024-01-25T00:59:05;9.30;93.30
15099;DHT22;33900;53.640;9.942;2024-01-25T01:01:31;9.30;93.30
15099;DHT22;33900;53.640;9.942;2024-01-25T01:03:57;9.30;93.30
15099;DHT22;33900;53.640;9.942;2024-01-25T01:06:23;9.30;93.30
15099;DHT22;33900;53.640;9.942;2024-01-25T01:08:49;9.30;93.30
15099;DHT22;33900;53.640;9.942;2024-01-25T01:11:15;9.30;93.30
15099;DHT22;33900;53.640;9.942;2024-01-25T01:13:41;9.30;93.30
15099;DHT22;33900;53.640;9.942;2024-01-25T01:16:06;9.30;93.40
15099;DHT22;33900;53.640;9.942;2024-01-25T01:18:32;9.30;93.30
15099;DHT22;33900;53.640;9.942;2024-01-25T01:20:58;9.30;93.70
15099;DHT22;33900;53.640;9.942;2024-01-25T01:23:23;9.30;93.40
15099;DHT22;33900;53.640;9.942;2024-01-25T01:25:49;9.30;93.40
15099;DHT22;33900;53.640;9.942;2024-01-25T01:28:15;9.30;93.40
15099;DHT22;33900;53.640;9.942;2024-01-25T01:30:40;9.30;93.40
15099;DHT22;33900;53.640;9.942;2024-01-25T01:33:08;9.30;93.40
15099;DHT22;33900;53.640;9.942;2024-01-25T01:35:33;9.30;93.40
15099;DHT22;33900;53.640;9.942;2024-01-25T01:37:59;9.30;93.40
15099;DHT22;33900;53.640;9.942;2024-01-25T01:40:24;9.30;93.40
15099;DHT22;33900;53.640;9.942;2024-01-25T01:42:50;9.30;93.40
15099;DHT22;33900;53.640;9.942;2024-01-25T01:45:16;9.30;93.40
15099;DHT22;33900;53.640;9.942;2024-01-25T01:47:41;9.30;93.40
15099;DHT22;33900;53.640;9.942;2024-01-25T01:50:07;9.30;93.30
15099;DHT22;33900;53.640;9.942;2024-01-25T01:52:33;9.30;93.40
15099;DHT22;33900;53.640;9.942;2024-01-25T01:54:59;9.30;93.40
15099;DHT22;33900;53.640;9.942;2024-01-25T01:57:24;9.30;93.40
15099;DHT22;33900;53.640;9.942;2024-01-25T01:59:51;9.30;93.30
15099;DHT22;33900;53.640;9.942;2024-01-25T02:02:17;9.40;93.40
15099;DHT22;33900;53.640;9.942;2024-01-25T02:04:43;9.30;93.40
15099;DHT22;33900;53.640;9.942;2024-01-25T02:07:09;9.30;93.40
15099;DHT22;33900;53.640;9.942;2024-01-25T02:09:34;9.40;93.40
15099;DHT22;33900;53.640;9.942;2024-01-25T02:12:01;9.40;93.40
15099;DHT22;33900;53.640;9.942;2024-01-25T02:14:27;9.40;93.50
15099;DHT22;33900;53.640;9.942;2024-01-25T02:16:52;9.40;93.40
15099;DHT22;33900;53.640;9.942;2024-01-25T02:19:18;9.40;93.50
15099;DHT22;33900;53.640;9.942;2024-01-25T02:21:43;9.40;93.50
15099;DHT22;33900;53.640;9.942;2024-01-25T02:24:09;9.40;93.50
15099;DHT22;33900;53.640;9.942;2024-01-25T02:26:35;9.40;93.50
15099;DHT22;33900;53.640;9.942;2024-01-25T02:29:00;9.40;93.60
15099;DHT22;33900;53.640;9.942;2024-01-25T02:31:26;9.40;93.50
15099;DHT22;33900;53.640;9.942;2024-01-25T02:33:52;9.40;93.50
15099;DHT22;33900;53.640;9.942;2024-01-25T02:36:17;9.40;93.60
15099;DHT22;33900;53.640;9.942;2024-01-25T02:38:44;9.40;93.60
15099;DHT22;33900;53.640;9.942;2024-01-25T02:41:09;9.40;93.90
15099;DHT22;33900;53.640;9.942;2024-01-25T02:43:35;9.40;93.70
15099;DHT22;33900;53.640;9.942;2024-01-25T02:46:01;9.40;93.70
15099;DHT22;33900;53.640;9.942;2024-01-25T02:48:27;9.40;93.70
15099;DHT22;33900;53.640;9.942;2024-01-25T02:50:52;9.50;93.70
15099;DHT22;33900;53.640;9.942;2024-01-25T02:53:18;9.40;93.70
15099;DHT22;33900;53.640;9.942;2024-01-25T02:55:43;9.40;93.70
15099;DHT22;33900;53.640;9.942;2024-01-25T02:58:09;9.40;93.70
15099;DHT22;33900;53.640;9.942;2024-01-25T03:00:35;9.40;93.80
15099;DHT22;33900;53.640;9.942;2024-01-25T03:03:00;9.40;93.80
15099;DHT22;33900;53.640;9.942;2024-01-25T03:05:26;9.40;93.70
15099;DHT22;33900;53.640;9.942;2024-01-25T03:07:51;9.50;93.80
15099;DHT22;33900;53.640;9.942;2024-01-25T03:10:17;9.50;93.80
15099;DHT22;33900;53.640;9.942;2024-01-25T03:12:42;9.40;93.70
15099;DHT22;33900;53.640;9.942;2024-01-25T03:15:09;9.40;93.80
15099;DHT22;33900;53.640;9.942;2024-01-25T03:17:35;9.40;93.80
15099;DHT22;33900;53.640;9.942;2024-01-25T03:20:01;9.40;93.80
15099;DHT22;33900;53.640;9.942;2024-01-25T03:22:26;9.40;93.90
15099;DHT22;33900;53.640;9.942;2024-01-25T03:27:45;9.40;93.90
15099;DHT22;33900;53.640;9.942;2024-01-25T03:30:11;9.40;93.90
15099;DHT22;33900;53.640;9.942;2024-01-25T03:32:37;9.40;93.90
15099;DHT22;33900;53.640;9.942;2024-01-25T03:35:02;9.40;93.90
15099;DHT22;33900;53.640;9.942;2024-01-25T03:37:28;9.50;94.00
15099;DHT22;33900;53.640;9.942;2024-01-25T03:39:55;9.40;93.90
15099;DHT22;33900;53.640;9.942;2024-01-25T03:42:21;9.40;93.90
15099;DHT22;33900;53.640;9.942;2024-01-25T03:44:46;9.40;93.90
15099;DHT22;33900;53.640;9.942;2024-01-25T03:47:12;9.40;93.90
15099;DHT22;33900;53.640;9.942;2024-01-25T03:49:38;9.40;93.90
15099;DHT22;33900;53.640;9.942;2024-01-25T03:52:04;9.40;93.90
15099;DHT22;33900;53.640;9.942;2024-01-25T03:54:30;9.40;94.00
15099;DHT22;33900;53.640;9.942;2024-01-25T03:56:56;9.40;94.00
15099;DHT22;33900;53.640;9.942;2024-01-25T03:59:21;9.40;94.00
15099;DHT22;33900;53.640;9.942;2024-01-25T04:01:47;9.40;94.00
15099;DHT22;33900;53.640;9.942;2024-01-25T04:04:13;9.40;94.00
15099;DHT22;33900;53.640;9.942;2024-01-25T04:06:41;9.40;94.10
15099;DHT22;33900;53.640;9.942;2024-01-25T04:09:07;9.40;94.10
15099;DHT22;33900;53.640;9.942;2024-01-25T04:11:32;9.40;94.10
15099;DHT22;33900;53.640;9.942;2024-01-25T04:13:58;9.40;94.20
15099;DHT22;33900;53.640;9.942;2024-01-25T04:16:24;9.40;94.20
15099;DHT22;33900;53.640;9.942;2024-01-25T04:18:49;9.40;94.20
15099;DHT22;33900;53.640;9.942;2024-01-25T04:21:15;9.40;94.20
15099;DHT22;33900;53.640;9.942;2024-01-25T04:23:40;9.40;94.20
15099;DHT22;33900;53.640;9.942;2024-01-25T04:26:06;9.40;94.50
15099;DHT22;33900;53.640;9.942;2024-01-25T04:28:32;9.40;94.10
15099;DHT22;33900;53.640;9.942;2024-01-25T04:30:57;9.40;94.10
15099;DHT22;33900;53.640;9.942;2024-01-25T04:33:23;9.40;94.10
15099;DHT22;33900;53.640;9.942;2024-01-25T04:35:48;9.40;94.10
15099;DHT22;33900;53.640;9.942;2024-01-25T04:38:18;9.40;94.10
15099;DHT22;33900;53.640;9.942;2024-01-25T04:40:43;9.40;94.20
15099;DHT22;33900;53.640;9.942;2024-01-25T04:43:09;9.40;94.10
15099;DHT22;33900;53.640;9.942;2024-01-25T04:45:35;9.40;94.20
15099;DHT22;33900;53.640;9.942;2024-01-25T04:48:00;9.40;94.20
15099;DHT22;33900;53.640;9.942;2024-01-25T04:50:26;9.40;94.20
15099;DHT22;33900;53.640;9.942;2024-01-25T04:52:51;9.40;94.30
15099;DHT22;33900;53.640;9.942;2024-01-25T04:55:17;9.40;94.20
15099;DHT22;33900;53.640;9.942;2024-01-25T04:57:43;9.40;94.30
15099;DHT22;33900;53.640;9.942;2024-01-25T05:00:09;9.40;94.30
15099;DHT22;33900;53.640;9.942;2024-01-25T05:02:35;9.40;94.20
15099;DHT22;33900;53.640;9.942;2024-01-25T05:05:01;9.30;94.20
15099;DHT22;33900;53.640;9.942;2024-01-25T05:07:26;9.30;94.20
15099;DHT22;33900;53.640;9.942;2024-01-25T05:09:52;9.30;94.20
15099;DHT22;33900;53.640;9.942;2024-01-25T05:12:17;9.30;94.20
15099;DHT22;33900;53.640;9.942;2024-01-25T05:14:43;9.30;94.20
15099;DHT22;33900;53.640;9.942;2024-01-25T05:17:09;9.30;94.20
15099;DHT22;33900;53.640;9.942;2024-01-25T05:19:34;9.20;94.20
15099;DHT22;33900;53.640;9.942;2024-01-25T05:22:00;9.20;94.20
15099;DHT22;33900;53.640;9.942;2024-01-25T05:24:26;9.20;94.20
15099;DHT22;33900;53.640;9.942;2024-01-25T05:26:52;9.20;94.20
15099;DHT22;33900;53.640;9.942;2024-01-25T05:29:17;9.20;94.20
15099;DHT22;33900;53.640;9.942;2024-01-25T05:31:43;9.20;94.30
15099;DHT22;33900;53.640;9.942;2024-01-25T05:34:09;9.10;94.30
15099;DHT22;33900;53.640;9.942;2024-01-25T05:36:34;9.10;94.30
15099;DHT22;33900;53.640;9.942;2024-01-25T05:39:00;9.10;94.30
15099;DHT22;33900;53.640;9.942;2024-01-25T05:41:26;9.10;94.40
15099;DHT22;33900;53.640;9.942;2024-01-25T05:43:51;9.10;94.40
15099;DHT22;33900;53.640;9.942;2024-01-25T05:46:17;9.10;94.40
15099;DHT22;33900;53.640;9.942;2024-01-25T05:48:42;9.20;94.50
15099;DHT22;33900;53.640;9.942;2024-01-25T05:51:08;9.10;94.40
15099;DHT22;33900;53.640;9.942;2024-01-25T05:53:33;9.10;94.40
15099;DHT22;33900;53.640;9.942;2024-01-25T05:56:00;9.10;94.50
15099;DHT22;33900;53.640;9.942;2024-01-25T05:58:26;9.10;94.50
15099;DHT22;33900;53.640;9.942;2024-01-25T06:00:51;9.10;94.60
15099;DHT22;33900;53.640;9.942;2024-01-25T06:03:17;9.10;94.60
15099;DHT22;33900;53.640;9.942;2024-01-25T06:05:42;9.10;94.60
15099;DHT22;33900;53.640;9.942;2024-01-25T06:08:09;9.10;94.70
15099;DHT22;33900;53.640;9.942;2024-01-25T06:10:34;9.10;94.70
15099;DHT22;33900;53.640;9.942;2024-01-25T06:13:00;9.10;94.70
15099;DHT22;33900;53.640;9.942;2024-01-25T06:15:25;9.10;94.80
15099;DHT22;33900;53.640;9.942;2024-01-25T06:17:51;9.10;94.80
15099;DHT22;33900;53.640;9.942;2024-01-25T06:20:16;9.10;94.80
15099;DHT22;33900;53.640;9.942;2024-01-25T06:22:42;9.10;94.80
15099;DHT22;33900;53.640;9.942;2024-01-25T06:25:08;9.10;94.90
15099;DHT22;33900;53.640;9.942;2024-01-25T06:27:34;9.10;94.90
15099;DHT22;33900;53.640;9.942;2024-01-25T06:30:00;9.10;94.90
15099;DHT22;33900;53.640;9.942;2024-01-25T06:32:26;9.10;94.80
15099;DHT22;33900;53.640;9.942;2024-01-25T06:34:51;9.10;94.90
15099;DHT22;33900;53.640;9.942;2024-01-25T06:37:18;9.10;94.80
15099;DHT22;33900;53.640;9.942;2024-01-25T06:39:44;9.10;94.90
15099;DHT22;33900;53.640;9.942;2024-01-25T06:42:09;9.10;94.90
15099;DHT22;33900;53.640;9.942;2024-01-25T06:44:35;9.10;94.80
15099;DHT22;33900;53.640;9.942;2024-01-25T06:47:01;9.20;94.90
15099;DHT22;33900;53.640;9.942;2024-01-25T06:49:26;9.20;94.90
15099;DHT22;33900;53.640;9.942;2024-01-25T06:51:52;9.20;94.90
15099;DHT22;33900;53.640;9.942;2024-01-25T06:54:17;9.20;94.80
15099;DHT22;33900;53.640;9.942;2024-01-25T06:56:43;9.20;94.80
15099;DHT22;33900;53.640;9.942;2024-01-25T06:59:09;9.20;94.80
15099;DHT22;33900;53.640;9.942;2024-01-25T07:01:34;9.20;94.80
15099;DHT22;33900;53.640;9.942;2024-01-25T07:04:00;9.20;94.80
15099;DHT22;33900;53.640;9.942;2024-01-25T07:06:25;9.20;94.80
15099;DHT22;33900;53.640;9.942;2024-01-25T07:08:53;9.20;94.80
15099;DHT22;33900;53.640;9.942;2024-01-25T07:11:19;9.20;94.80
15099;DHT22;33900;53.640;9.942;2024-01-25T07:13:45;9.20;94.80
15099;DHT22;33900;53.640;9.942;2024-01-25T07:16:11;9.20;94.80
15099;DHT22;33900;53.640;9.942;2024-01-25T07:18:36;9.20;94.80
15099;DHT22;33900;53.640;9.942;2024-01-25T07:21:02;9.20;94.80
15099;DHT22;33900;53.640;9.942;2024-01-25T07:23:29;9.10;94.80
15099;DHT22;33900;53.640;9.942;2024-01-25T07:25:54;9.20;94.80
15099;DHT22;33900;53.640;9.942;2024-01-25T07:28:20;9.20;94.80
15099;DHT22;33900;53.640;9.942;2024-01-25T07:30:49;9.10;94.80
15099;DHT22;33900;53.640;9.942;2024-01-25T07:33:15;9.10;94.90
15099;DHT22;33900;53.640;9.942;2024-01-25T07:35:41;9.10;94.90
15099;DHT22;33900;53.640;9.942;2024-01-25T07:38:11;9.10;94.90
15099;DHT22;33900;53.640;9.942;2024-01-25T07:40:37;9.10;94.90
15099;DHT22;33900;53.640;9.942;2024-01-25T07:43:02;9.10;94.90
15099;DHT22;33900;53.640;9.942;2024-01-25T07:45:28;9.10;94.90
15099;DHT22;33900;53.640;9.942;2024-01-25T07:47:54;9.10;94.90
15099;DHT22;33900;53.640;9.942;2024-01-25T07:50:19;9.20;95.00
15099;DHT22;33900;53.640;9.942;2024-01-25T07:52:45;9.20;94.90
15099;DHT22;33900;53.640;9.942;2024-01-25T07:55:11;9.20;95.00
15099;DHT22;33900;53.640;9.942;2024-01-25T07:57:37;9.20;95.00
15099;DHT22;33900;53.640;9.942;2024-01-25T08:00:03;9.20;95.00
15099;DHT22;33900;53.640;9.942;2024-01-25T08:02:30;9.20;95.00
15099;DHT22;33900;53.640;9.942;2024-01-25T08:04:55;9.20;95.00
15099;DHT22;33900;53.640;9.942;2024-01-25T08:07:23;9.20;95.00
15099;DHT22;33900;53.640;9.942;2024-01-25T08:09:48;9.20;95.00
15099;DHT22;33900;53.640;9.942;2024-01-25T08:12:17;9.20;95.00
15099;DHT22;33900;53.640;9.942;2024-01-25T08:14:42;9.20;95.00
15099;DHT22;33900;53.640;9.942;2024-01-25T08:17:09;9.20;94.90
15099;DHT22;33900;53.640;9.942;2024-01-25T08:19:35;9.20;94.90
15099;DHT22;33900;53.640;9.942;2024-01-25T08:22:01;9.30;95.00
15099;DHT22;33900;53.640;9.942;2024-01-25T08:24:27;9.30;94.90
15099;DHT22;33900;53.640;9.942;2024-01-25T08:26:53;9.30;95.00
15099;DHT22;33900;53.640;9.942;2024-01-25T08:29:18;9.30;95.00
15099;DHT22;33900;53.640;9.942;2024-01-25T08:31:44;9.30;95.00
15099;DHT22;33900;53.640;9.942;2024-01-25T08:34:09;9.30;95.00
15099;DHT22;33900;53.640;9.942;2024-01-25T08:36:35;9.30;95.00
15099;DHT22;33900;53.640;9.942;2024-01-25T08:39:01;9.30;95.00
15099;DHT22;33900;53.640;9.942;2024-01-25T08:41:27;9.30;95.00
15099;DHT22;33900;53.640;9.942;2024-01-25T08:43:52;9.30;95.00
15099;DHT22;33900;53.640;9.942;2024-01-25T08:46:18;9.30;95.00
15099;DHT22;33900;53.640;9.942;2024-01-25T08:48:44;9.30;95.00
15099;DHT22;33900;53.640;9.942;2024-01-25T08:51:10;9.30;95.10
15099;DHT22;33900;53.640;9.942;2024-01-25T08:53:35;9.30;95.00
15099;DHT22;33900;53.640;9.942;2024-01-25T08:56:01;9.30;95.00
15099;DHT22;33900;53.640;9.942;2024-01-25T08:58:26;9.40;95.00
15099;DHT22;33900;53.640;9.942;2024-01-25T09:00:52;9.40;95.10
15099;DHT22;33900;53.640;9.942;2024-01-25T09:03:18;9.40;95.10
15099;DHT22;33900;53.640;9.942;2024-01-25T09:05:43;9.40;95.10
15099;DHT22;33900;53.640;9.942;2024-01-25T09:08:12;9.40;95.10
15099;DHT22;33900;53.640;9.942;2024-01-25T09:10:38;9.40;95.10
15099;DHT22;33900;53.640;9.942;2024-01-25T09:13:04;9.40;95.00
15099;DHT22;33900;53.640;9.942;2024-01-25T09:15:29;9.40;95.10
15099;DHT22;33900;53.640;9.942;2024-01-25T09:17:55;9.40;95.10
15099;DHT22;33900;53.640;9.942;2024-01-25T09:20:20;9.40;95.10
15099;DHT22;33900;53.640;9.942;2024-01-25T09:22:46;9.40;95.10
15099;DHT22;33900;53.640;9.942;2024-01-25T09:25:13;9.40;95.10
15099;DHT22;33900;53.640;9.942;2024-01-25T09:27:41;9.40;95.10
15099;DHT22;33900;53.640;9.942;2024-01-25T09:30:07;9.40;95.10
15099;DHT22;33900;53.640;9.942;2024-01-25T09:32:33;9.40;95.10
15099;DHT22;33900;53.640;9.942;2024-01-25T09:34:59;9.40;95.10
15099;DHT22;33900;53.640;9.942;2024-01-25T09:37:28;9.50;95.10
15099;DHT22;33900;53.640;9.942;2024-01-25T09:39:54;9.50;95.10
15099;DHT22;33900;53.640;9.942;2024-01-25T09:42:19;9.50;95.10
15099;DHT22;33900;53.640;9.942;2024-01-25T09:44:45;9.60;95.10
15099;DHT22;33900;53.640;9.942;2024-01-25T09:47:11;9.50;95.10
15099;DHT22;33900;53.640;9.942;2024-01-25T09:49:36;9.50;95.10
15099;DHT22;33900;53.640;9.942;2024-01-25T09:52:02;9.50;95.10
15099;DHT22;33900;53.640;9.942;2024-01-25T09:54:35;9.50;95.10
15099;DHT22;33900;53.640;9.942;2024-01-25T09:57:06;9.50;95.10
15099;DHT22;33900;53.640;9.942;2024-01-25T09:59:32;9.50;95.10
15099;DHT22;33900;53.640;9.942;2024-01-25T10:01:57;9.50;95.10
15099;DHT22;33900;53.640;9.942;2024-01-25T10:04:24;9.50;95.00
15099;DHT22;33900;53.640;9.942;2024-01-25T10:06:50;9.50;95.00
15099;DHT22;33900;53.640;9.942;2024-01-25T10:09:15;9.50;95.10
15099;DHT22;33900;53.640;9.942;2024-01-25T10:11:42;9.50;95.10
15099;DHT22;33900;53.640;9.942;2024-01-25T10:14:07;9.50;95.10
15099;DHT22;33900;53.640;9.942;2024-01-25T10:16:33;9.50;95.10
15099;DHT22;33900;53.640;9.942;2024-01-25T10:19:00;9.50;95.10
15099;DHT22;33900;53.640;9.942;2024-01-25T10:21:27;9.50;95.10
15099;DHT22;33900;53.640;9.942;2024-01-25T10:23:54;9.50;95.00
15099;DHT22;33900;53.640;9.942;2024-01-25T10:26:26;9.60;95.10
15099;DHT22;33900;53.640;9.942;2024-01-25T10:28:54;9.60;95.10
15099;DHT22;33900;53.640;9.942;2024-01-25T10:31:23;9.60;95.10
15099;DHT22;33900;53.640;9.942;2024-01-25T10:33:50;9.60;95.10
15099;DHT22;33900;53.640;9.942;2024-01-25T10:36:16;9.60;95.00
15099;DHT22;33900;53.640;9.942;2024-01-25T10:38:42;9.60;94.90
15099;DHT22;33900;53.640;9.942;2024-01-25T10:41:11;9.60;94.90
15099;DHT22;33900;53.640;9.942;2024-01-25T10:43:39;9.60;94.90
15099;DHT22;33900;53.640;9.942;2024-01-25T10:46:04;9.60;95.00
15099;DHT22;33900;53.640;9.942;2024-01-25T10:48:31;9.60;95.00
15099;DHT22;33900;53.640;9.942;2024-01-25T10:50:56;9.60;94.90
15099;DHT22;33900;53.640;9.942;2024-01-25T10:53:24;9.70;94.90
15099;DHT22;33900;53.640;9.942;2024-01-25T10:55:50;9.70;94.90
15099;DHT22;33900;53.640;9.942;2024-01-25T10:58:16;9.70;95.00
15099;DHT22;33900;53.640;9.942;2024-01-25T11:00:49;9.70;94.90
15099;DHT22;33900;53.640;9.942;2024-01-25T11:03:15;9.70;94.80
15099;DHT22;33900;53.640;9.942;2024-01-25T11:05:43;9.70;94.80
15099;DHT22;33900;53.640;9.942;2024-01-25T11:08:17;9.80;94.60
15099;DHT22;33900;53.640;9.942;2024-01-25T11:10:46;9.70;94.50
15099;DHT22;33900;53.640;9.942;2024-01-25T11:13:13;9.70;94.50
15099;DHT22;33900;53.640;9.942;2024-01-25T11:15:39;9.70;94.50
15099;DHT22;33900;53.640;9.942;2024-01-25T11:18:07;9.70;94.40
15099;DHT22;33900;53.640;9.942;2024-01-25T11:20:34;9.80;94.40
15099;DHT22;33900;53.640;9.942;2024-01-25T11:23:03;9.80;94.40
15099;DHT22;33900;53.640;9.942;2024-01-25T11:25:30;9.70;94.30
15099;DHT22;33900;53.640;9.942;2024-01-25T11:27:56;9.70;94.20
15099;DHT22;33900;53.640;9.942;2024-01-25T11:30:22;9.70;94.20
15099;DHT22;33900;53.640;9.942;2024-01-25T11:32:47;9.70;94.20
15099;DHT22;33900;53.640;9.942;2024-01-25T11:35:13;9.70;94.20
15099;DHT22;33900;53.640;9.942;2024-01-25T11:37:42;9.70;94.20
15099;DHT22;33900;53.640;9.942;2024-01-25T11:40:09;9.70;94.30
15099;DHT22;33900;53.640;9.942;2024-01-25T11:42:34;9.80;94.30
15099;DHT22;33900;53.640;9.942;2024-01-25T11:45:00;9.80;94.40
15099;DHT22;33900;53.640;9.942;2024-01-25T11:47:26;9.80;94.40
15099;DHT22;33900;53.640;9.942;2024-01-25T11:49:51;9.80;94.40
15099;DHT22;33900;53.640;9.942;2024-01-25T11:52:17;9.80;94.40
15099;DHT22;33900;53.640;9.942;2024-01-25T11:54:43;9.90;94.50
15099;DHT22;33900;53.640;9.942;2024-01-25T11:57:08;9.90;94.50
15099;DHT22;33900;53.640;9.942;2024-01-25T11:59:34;9.90;94.50
15099;DHT22;33900;53.640;9.942;2024-01-25T12:01:59;9.90;94.50
15099;DHT22;33900;53.640;9.942;2024-01-25T12:04:26;9.90;94.40
15099;DHT22;33900;53.640;9.942;2024-01-25T12:06:53;9.90;94.40
15099;DHT22;33900;53.640;9.942;2024-01-25T12:09:18;9.90;94.40
15099;DHT22;33900;53.640;9.942;2024-01-25T12:11:44;9.90;94.40
15099;DHT22;33900;53.640;9.942;2024-01-25T12:14:16;9.90;94.50
15099;DHT22;33900;53.640;9.942;2024-01-25T12:16:42;9.90;94.50
15099;DHT22;33900;53.640;9.942;2024-01-25T12:19:08;9.90;94.50
15099;DHT22;33900;53.640;9.942;2024-01-25T12:21:34;9.90;94.40
15099;DHT22;33900;53.640;9.942;2024-01-25T12:24:00;9.90;94.50
15099;DHT22;33900;53.640;9.942;2024-01-25T12:26:25;9.90;94.50
15099;DHT22;33900;53.640;9.942;2024-01-25T12:28:51;9.90;94.40
15099;DHT22;33900;53.640;9.942;2024-01-25T12:31:16;9.90;94.40
15099;DHT22;33900;53.640;9.942;2024-01-25T12:33:43;9.90;94.40
15099;DHT22;33900;53.640;9.942;2024-01-25T12:36:09;9.90;94.40
15099;DHT22;33900;53.640;9.942;2024-01-25T12:38:36;9.90;94.40
15099;DHT22;33900;53.640;9.942;2024-01-25T12:41:02;9.90;94.40
15099;DHT22;33900;53.640;9.942;2024-01-25T12:43:28;9.90;94.30
15099;DHT22;33900;53.640;9.942;2024-01-25T12:45:54;9.90;94.30
15099;DHT22;33900;53.640;9.942;2024-01-25T12:48:19;9.90;94.30
15099;DHT22;33900;53.640;9.942;2024-01-25T12:50:45;9.90;94.30
15099;DHT22;33900;53.640;9.942;2024-01-25T12:53:11;9.90;94.30
15099;DHT22;33900;53.640;9.942;2024-01-25T12:55:37;9.90;94.40
15099;DHT22;33900;53.640;9.942;2024-01-25T12:58:03;9.90;94.30
15099;DHT22;33900;53.640;9.942;2024-01-25T13:00:28;9.90;94.40
15099;DHT22;33900;53.640;9.942;2024-01-25T13:02:54;9.90;94.40
15099;DHT22;33900;53.640;9.942;2024-01-25T13:05:21;9.90;94.70
15099;DHT22;33900;53.640;9.942;2024-01-25T13:07:47;9.90;94.30
15099;DHT22;33900;53.640;9.942;2024-01-25T13:10:13;9.90;94.40
15099;DHT22;33900;53.640;9.942;2024-01-25T13:12:39;9.90;94.40
15099;DHT22;33900;53.640;9.942;2024-01-25T13:15:04;9.90;94.40
15099;DHT22;33900;53.640;9.942;2024-01-25T13:17:30;9.90;94.40
15099;DHT22;33900;53.640;9.942;2024-01-25T13:19:59;9.90;94.30
15099;DHT22;33900;53.640;9.942;2024-01-25T13:22:25;9.90;94.30
15099;DHT22;33900;53.640;9.942;2024-01-25T13:24:51;9.90;94.30
15099;DHT22;33900;53.640;9.942;2024-01-25T13:27:16;9.90;94.30
15099;DHT22;33900;53.640;9.942;2024-01-25T13:29:42;9.90;94.30
15099;DHT22;33900;53.640;9.942;2024-01-25T13:32:08;9.90;94.30
15099;DHT22;33900;53.640;9.942;2024-01-25T13:34:34;9.90;94.30
15099;DHT22;33900;53.640;9.942;2024-01-25T13:36:59;9.90;94.30
15099;DHT22;33900;53.640;9.942;2024-01-25T13:39:26;9.90;94.30
15099;DHT22;33900;53.640;9.942;2024-01-25T13:41:51;9.90;94.30
15099;DHT22;33900;53.640;9.942;2024-01-25T13:44:17;10.00;94.30
15099;DHT22;33900;53.640;9.942;2024-01-25T13:46:43;10.00;94.40
15099;DHT22;33900;53.640;9.942;2024-01-25T13:49:08;10.00;94.30
15099;DHT22;33900;53.640;9.942;2024-01-25T13:51:34;10.00;94.30
15099;DHT22;33900;53.640;9.942;2024-01-25T13:54:00;10.00;94.30
15099;DHT22;33900;53.640;9.942;2024-01-25T13:56:25;10.00;94.20
15099;DHT22;33900;53.640;9.942;2024-01-25T13:58:51;10.00;94.20
15099;DHT22;33900;53.640;9.942;2024-01-25T14:01:17;10.00;94.20
15099;DHT22;33900;53.640;9.942;2024-01-25T14:03:42;10.10;94.30
15099;DHT22;33900;53.640;9.942;2024-01-25T14:06:08;10.10;94.30
15099;DHT22;33900;53.640;9.942;2024-01-25T14:08:35;10.10;94.30
15099;DHT22;33900;53.640;9.942;2024-01-25T14:11:01;10.20;94.30
15099;DHT22;33900;53.640;9.942;2024-01-25T14:13:27;10.20;94.30
15099;DHT22;33900;53.640;9.942;2024-01-25T14:15:52;10.30;94.70
15099;DHT22;33900;53.640;9.942;2024-01-25T14:18:18;10.30;94.30
15099;DHT22;33900;53.640;9.942;2024-01-25T14:20:44;10.30;94.30
15099;DHT22;33900;53.640;9.942;2024-01-25T14:23:09;10.30;94.20
15099;DHT22;33900;53.640;9.942;2024-01-25T14:25:35;10.30;94.20
15099;DHT22;33900;53.640;9.942;2024-01-25T14:28:00;10.40;94.20
15099;DHT22;33900;53.640;9.942;2024-01-25T14:30:26;10.40;94.20
15099;DHT22;33900;53.640;9.942;2024-01-25T14:32:52;10.50;94.20
15099;DHT22;33900;53.640;9.942;2024-01-25T14:35:17;10.40;94.20
15099;DHT22;33900;53.640;9.942;2024-01-25T14:37:44;10.50;94.20
15099;DHT22;33900;53.640;9.942;2024-01-25T14:40:10;10.50;94.50
15099;DHT22;33900;53.640;9.942;2024-01-25T14:42:36;10.50;94.20
15099;DHT22;33900;53.640;9.942;2024-01-25T14:45:03;10.50;94.10
15099;DHT22;33900;53.640;9.942;2024-01-25T14:47:28;10.50;94.10
15099;DHT22;33900;53.640;9.942;2024-01-25T14:49:54;10.50;94.10
15099;DHT22;33900;53.640;9.942;2024-01-25T14:52:19;10.50;94.10
15099;DHT22;33900;53.640;9.942;2024-01-25T14:54:45;10.50;94.20
15099;DHT22;33900;53.640;9.942;2024-01-25T14:57:10;10.50;94.10
15099;DHT22;33900;53.640;9.942;2024-01-25T14:59:37;10.50;94.10
15099;DHT22;33900;53.640;9.942;2024-01-25T15:02:03;10.50;94.00
15099;DHT22;33900;53.640;9.942;2024-01-25T15:04:29;10.50;94.00
15099;DHT22;33900;53.640;9.942;2024-01-25T15:06:56;10.40;93.90
15099;DHT22;33900;53.640;9.942;2024-01-25T15:09:21;10.40;93.50
15099;DHT22;33900;53.640;9.942;2024-01-25T15:11:47;10.30;93.50
15099;DHT22;33900;53.640;9.942;2024-01-25T15:14:13;10.30;93.50
15099;DHT22;33900;53.640;9.942;2024-01-25T15:16:39;10.30;93.40
15099;DHT22;33900;53.640;9.942;2024-01-25T15:19:06;10.30;93.30
15099;DHT22;33900;53.640;9.942;2024-01-25T15:21:32;10.30;93.30
15099;DHT22;33900;53.640;9.942;2024-01-25T15:23:57;10.20;93.30
15099;DHT22;33900;53.640;9.942;2024-01-25T15:26:23;10.20;93.30
15099;DHT22;33900;53.640;9.942;2024-01-25T15:28:48;10.20;93.30
15099;DHT22;33900;53.640;9.942;2024-01-25T15:31:15;10.10;93.30
15099;DHT22;33900;53.640;9.942;2024-01-25T15:33:41;10.10;93.40
15099;DHT22;33900;53.640;9.942;2024-01-25T15:36:09;10.10;93.40
15099;DHT22;33900;53.640;9.942;2024-01-25T15:38:35;10.10;93.40